createdAt,value
2018-09-03T00:03:28.465Z,3.40
2018-09-03T00:08:31.710Z,3.40
2018-09-03T00:13:34.926Z,3.30
2018-09-03T00:18:38.114Z,3.30
2018-09-03T00:23:41.342Z,3.43
2018-09-03T00:28:44.514Z,3.60
2018-09-03T00:33:52.990Z,3.23
2018-09-03T00:39:01.694Z,3.87
2018-09-03T00:44:10.141Z,3.30
2018-09-03T00:49:13.302Z,3.50
2018-09-03T00:54:16.530Z,3.63
2018-09-03T00:59:19.677Z,3.70
2018-09-03T01:04:22.861Z,3.87
2018-09-03T01:09:26.046Z,4.03
2018-09-03T01:14:29.222Z,3.83
2018-09-03T01:19:32.398Z,3.53
2018-09-03T01:24:36.627Z,4.47
2018-09-03T01:29:39.909Z,4.00
2018-09-03T01:34:43.038Z,3.67
2018-09-03T01:39:53.294Z,3.40
2018-09-03T01:44:56.505Z,3.87
2018-09-03T01:49:59.709Z,3.70
2018-09-03T01:55:02.927Z,4.10
2018-09-03T02:00:06.278Z,3.67
2018-09-03T02:05:09.551Z,4.37
2018-09-03T02:10:12.803Z,3.80
2018-09-03T02:15:16.131Z,3.90
2018-09-03T02:20:19.338Z,4.23
2018-09-03T02:25:22.595Z,4.30
2018-09-03T02:30:25.979Z,3.77
2018-09-03T02:35:29.225Z,4.10
2018-09-03T02:40:32.422Z,4.37
2018-09-03T02:45:35.681Z,4.30
2018-09-03T02:50:39.538Z,3.87
2018-09-03T02:55:42.726Z,4.37
2018-09-03T03:00:45.935Z,4.03
2018-09-03T03:05:49.134Z,4.70
2018-09-03T03:10:52.365Z,4.30
2018-09-03T03:15:55.574Z,4.10
2018-09-03T03:20:58.786Z,4.00
2018-09-03T03:26:02.010Z,4.50
2018-09-03T03:31:05.235Z,4.20
2018-09-03T03:36:08.506Z,4.40
2018-09-03T03:41:11.706Z,4.10
2018-09-03T03:46:14.932Z,4.47
2018-09-03T03:51:18.121Z,5.37
2018-09-03T03:56:21.342Z,5.00
2018-09-03T04:01:24.575Z,5.33
2018-09-03T04:06:28.013Z,4.53
2018-09-03T04:11:31.233Z,4.30
2018-09-03T04:16:34.446Z,5.00
2018-09-03T04:21:37.689Z,5.63
2018-09-03T04:26:40.935Z,4.87
2018-09-03T04:31:44.199Z,4.87
2018-09-03T04:36:47.456Z,4.80
2018-09-03T04:41:50.705Z,5.10
2018-09-03T04:46:53.946Z,4.60
2018-09-03T04:51:57.281Z,4.67
2018-09-03T04:57:00.502Z,5.30
2018-09-03T05:02:03.955Z,4.87
2018-09-03T05:07:07.267Z,5.10
2018-09-03T05:12:10.509Z,4.40
2018-09-03T05:17:13.733Z,4.87
2018-09-03T05:22:16.955Z,5.27
2018-09-03T05:27:20.163Z,5.43
2018-09-03T05:32:23.375Z,5.20
2018-09-03T05:37:26.606Z,5.70
2018-09-03T05:42:29.963Z,5.80
2018-09-03T05:47:33.254Z,6.00
2018-09-03T05:52:36.489Z,6.03
2018-09-03T05:57:39.785Z,6.60
2018-09-03T06:02:43.158Z,6.30
2018-09-03T06:07:46.375Z,6.13
2018-09-03T06:12:49.598Z,6.87
2018-09-03T06:17:52.871Z,6.50
2018-09-03T06:22:56.185Z,6.27
2018-09-03T06:27:59.454Z,6.43
2018-09-03T06:33:02.701Z,6.57
2018-09-03T06:38:05.990Z,5.87
2018-09-03T06:43:09.255Z,6.30
2018-09-03T06:48:12.521Z,6.93
2018-09-03T06:53:15.964Z,6.70
2018-09-03T06:58:19.213Z,11.77
2018-09-03T07:03:22.424Z,8.67
2018-09-03T07:08:25.634Z,8.10
2018-09-03T07:13:28.862Z,8.07
2018-09-03T07:18:32.182Z,7.90
2018-09-03T07:23:38.775Z,7.33
2018-09-03T07:28:42.110Z,7.07
2018-09-03T07:33:45.291Z,8.23
2018-09-03T07:38:49.026Z,8.27
2018-09-03T07:43:52.307Z,9.93
2018-09-03T07:48:55.538Z,9.83
2018-09-03T07:53:58.774Z,8.90
2018-09-03T07:59:02.316Z,9.53
2018-09-03T08:04:05.841Z,10.20
2018-09-03T08:09:11.322Z,10.53
2018-09-03T08:14:14.538Z,9.70
2018-09-03T08:19:17.758Z,9.77
2018-09-03T08:24:20.979Z,8.73
2018-09-03T08:29:24.435Z,9.37
2018-09-03T08:34:27.641Z,9.83
2018-09-03T08:39:31.795Z,8.53
2018-09-03T08:44:35.029Z,9.10
2018-09-03T08:49:38.296Z,9.17
2018-09-03T08:54:41.666Z,11.17
2018-09-03T08:59:44.890Z,11.40
2018-09-03T09:04:48.123Z,10.40
2018-09-03T09:09:51.694Z,9.30
2018-09-03T09:14:54.950Z,9.23
2018-09-03T09:19:58.262Z,9.07
2018-09-03T09:25:01.543Z,8.50
2018-09-03T09:30:05.422Z,9.73
2018-09-03T09:35:08.669Z,9.80
2018-09-03T09:40:11.891Z,10.23
2018-09-03T09:45:15.142Z,9.97
2018-09-03T09:50:18.340Z,9.67
2018-09-03T09:55:21.542Z,9.93
2018-09-03T10:00:30.234Z,9.47
2018-09-03T10:05:33.440Z,10.03
2018-09-03T10:10:36.695Z,8.73
2018-09-03T10:15:39.913Z,10.07
2018-09-03T10:20:43.113Z,10.10
2018-09-03T10:25:46.333Z,9.70
2018-09-03T10:30:50.075Z,9.90
2018-09-03T10:35:53.277Z,9.53
2018-09-03T10:40:56.519Z,8.30
2018-09-03T10:45:59.773Z,10.60
2018-09-03T10:51:03.006Z,10.10
2018-09-03T10:56:06.455Z,9.67
2018-09-03T11:01:09.650Z,11.30
2018-09-03T11:06:12.861Z,11.67
2018-09-03T11:11:16.116Z,11.93
2018-09-03T11:16:19.396Z,13.27
2018-09-03T11:21:22.757Z,14.03
2018-09-03T11:26:26.015Z,13.50
2018-09-03T11:31:29.258Z,14.50
2018-09-03T11:36:32.489Z,15.27
2018-09-03T11:41:35.765Z,13.80
2018-09-03T11:46:38.991Z,13.20
2018-09-03T11:51:42.206Z,13.40
2018-09-03T11:56:45.434Z,14.10
2018-09-03T12:01:48.679Z,14.20
2018-09-03T12:06:51.894Z,13.20
2018-09-03T12:11:55.120Z,14.73
2018-09-03T12:16:59.746Z,15.93
2018-09-03T12:22:02.957Z,16.60
2018-09-03T12:27:06.165Z,16.43
2018-09-03T12:32:09.440Z,17.73
2018-09-03T12:37:12.725Z,18.47
2018-09-03T12:42:18.075Z,16.80
2018-09-03T12:47:21.316Z,20.10
2018-09-03T12:52:24.631Z,16.20
2018-09-03T12:57:27.853Z,20.27
2018-09-03T13:02:39.411Z,18.90
2018-09-03T13:07:34.427Z,18.07
2018-09-03T13:12:38.742Z,21.27
2018-09-03T13:17:41.995Z,21.20
2018-09-03T13:22:45.800Z,23.53
2018-09-03T13:27:49.102Z,24.47
2018-09-03T13:32:52.357Z,24.40
2018-09-03T13:37:55.654Z,25.30
2018-09-03T13:42:58.871Z,25.07
2018-09-03T13:48:02.169Z,25.33
2018-09-03T13:53:06.158Z,25.97
2018-09-03T13:58:09.414Z,27.60
2018-09-03T14:03:14.814Z,28.43
2018-09-03T14:08:18.057Z,29.43
2018-09-03T14:13:22.342Z,26.07
2018-09-03T14:18:27.746Z,27.13
2018-09-03T14:23:32.142Z,29.03
2018-09-03T14:28:35.558Z,26.43
2018-09-03T14:33:39.666Z,26.93
2018-09-03T14:38:43.940Z,27.10
2018-09-03T14:43:47.298Z,26.50
2018-09-03T14:48:52.724Z,23.90
2018-09-03T14:53:56.106Z,25.53
2018-09-03T14:59:00.327Z,22.60
2018-09-03T15:04:04.147Z,23.50
2018-09-03T15:09:08.645Z,23.17
2018-09-03T15:14:11.906Z,23.07
2018-09-03T15:19:15.278Z,21.80
2018-09-03T15:24:18.507Z,21.73
2018-09-03T15:29:21.734Z,23.27
2018-09-03T15:34:25.159Z,23.90
2018-09-03T15:39:30.463Z,21.97
2018-09-03T15:44:33.694Z,20.87
2018-09-03T15:49:36.966Z,21.83
2018-09-03T15:54:40.723Z,23.00
2018-09-03T15:59:44.069Z,21.20
2018-09-03T16:04:47.302Z,22.30
2018-09-03T16:09:50.517Z,22.00
2018-09-03T16:14:53.770Z,22.80
2018-09-03T16:20:05.011Z,22.30
2018-09-03T16:25:08.222Z,21.57
2018-09-03T16:30:11.459Z,22.30
2018-09-03T16:35:14.674Z,23.53
2018-09-03T16:40:17.908Z,22.70
2018-09-03T16:45:21.262Z,23.13
2018-09-03T16:50:24.705Z,22.43
2018-09-03T16:55:27.937Z,23.13
2018-09-03T17:00:31.128Z,21.40
2018-09-03T17:05:34.393Z,20.87
2018-09-03T17:10:37.692Z,20.67
2018-09-03T17:15:41.057Z,22.03
2018-09-03T17:20:44.265Z,22.43
2018-09-03T17:25:47.485Z,20.27
2018-09-03T17:30:50.702Z,21.17
2018-09-03T17:35:53.976Z,21.63
2018-09-03T17:40:57.249Z,21.70
2018-09-03T17:46:00.475Z,19.60
2018-09-03T17:51:03.691Z,19.47
2018-09-03T17:56:06.914Z,18.83
2018-09-03T18:01:10.222Z,19.63
2018-09-03T18:06:13.544Z,19.77
2018-09-03T18:11:16.771Z,22.47
2018-09-03T18:16:20.117Z,22.67
2018-09-03T18:21:23.296Z,20.67
2018-09-03T18:26:26.679Z,21.13
2018-09-03T18:31:29.906Z,21.67
2018-09-03T18:36:33.155Z,19.77
2018-09-03T18:41:36.452Z,20.93
2018-09-03T18:46:39.626Z,20.77
2018-09-03T18:51:42.839Z,20.90
2018-09-03T18:56:46.047Z,20.90
2018-09-03T19:01:49.355Z,21.70
2018-09-03T19:06:52.556Z,21.00
2018-09-03T19:11:55.791Z,22.30
2018-09-03T19:16:59.174Z,21.30
2018-09-03T19:22:02.536Z,23.63
2018-09-03T19:27:06.670Z,21.27
2018-09-03T19:32:10.979Z,20.93
2018-09-03T19:37:14.179Z,21.70
2018-09-03T19:42:17.434Z,22.13
2018-09-03T19:47:20.661Z,22.13
2018-09-03T19:52:23.927Z,22.07
2018-09-03T19:57:27.489Z,20.23
2018-09-03T20:02:30.746Z,22.37
2018-09-03T20:07:34.138Z,21.07
2018-09-03T20:12:38.378Z,22.03
2018-09-03T20:17:41.716Z,22.73
2018-09-03T20:22:45.031Z,20.97
2018-09-03T20:27:48.540Z,23.27
2018-09-03T20:32:51.854Z,21.83
2018-09-03T20:37:55.090Z,24.07
2018-09-03T20:42:58.378Z,24.93
2018-09-03T20:48:01.571Z,24.37
2018-09-03T20:53:04.909Z,22.97
2018-09-03T20:58:08.103Z,24.87
2018-09-03T21:03:11.463Z,22.73
2018-09-03T21:08:14.662Z,22.47
2018-09-03T21:13:17.834Z,22.20
2018-09-03T21:18:21.024Z,23.30
2018-09-03T21:23:24.274Z,22.30
2018-09-03T21:28:27.452Z,23.37
2018-09-03T21:33:30.615Z,22.83
2018-09-03T21:38:33.814Z,26.47
2018-09-03T21:43:37.113Z,23.00
2018-09-03T21:48:42.889Z,25.43
2018-09-03T21:53:47.172Z,24.20
2018-09-03T21:58:50.362Z,24.43
2018-09-03T22:03:53.566Z,26.73
2018-09-03T22:08:57.806Z,24.70
2018-09-03T22:14:01.019Z,23.70
2018-09-03T22:19:04.326Z,24.67
2018-09-03T22:24:07.554Z,25.13
2018-09-03T22:29:10.766Z,23.87
2018-09-03T22:34:14.137Z,24.57
2018-09-03T22:39:17.378Z,25.40
2018-09-03T22:44:20.679Z,24.20
2018-09-03T22:49:23.869Z,28.90
2018-09-03T22:54:27.131Z,25.73
2018-09-03T22:59:30.302Z,27.37
2018-09-03T23:04:33.538Z,27.67
2018-09-03T23:09:36.770Z,26.23
2018-09-03T23:14:39.988Z,24.23
2018-09-03T23:19:43.182Z,25.47
2018-09-03T23:24:46.360Z,28.03
2018-09-03T23:29:49.542Z,27.27
2018-09-03T23:34:52.741Z,26.40
2018-09-03T23:39:57.030Z,28.37
2018-09-03T23:45:00.219Z,29.77
2018-09-03T23:50:03.478Z,30.70
2018-09-03T23:55:06.805Z,30.50
